メインページ
METAR-TAF:

METAR-TAF

空港 :

ネータージー・スバース・チャンドラ・ボース国際空港

コルカタ, インド

緯度: 22-39N, 経度: 088-27E, 海抜: 4m

現時点の気象観測

当レポートは38分前の11:00(UTC)に作成
東/南東の風 3kt
気温 29°C
湿度 55%
気圧 1009 hPa
視程: 2600m
高度1800ftの雲はほとんどない

METAR: VECC 141100Z 12003KT 2600 BR FEW018 29/19 Q1009 NOSIG

時間: 17:08 (11:38 UTC)

予報

当レポートは3時間38分前の08:00(UTC)に作成
予報は14日の 09時(UTC)から 14日の 18時(UTC)まで有効
北/北東の風 6kt
視程: 3100m
高度2000ftの雲はほとんどない
煙霧
14日の 13時(UTC)から 14日の 15時(UTC)まで徐々に
の風 kt
視程: 2600m
煙霧

TAF: VECC 140800Z 1409/1418 02006KT 3100 HZ FEW020 BECMG 1413/1415 00000KT 2600 HZ

4,000以上の空港の気象観測と天気予報(METAR報とTAF報)

利用可能な観測所は地図上に黄色い丸と赤い丸で示す。

丸の上にカーソルを重ねると観測所名を参照できる。

次にクリックすると気象観測と天気予報を参照できる。

マップの切り替え:黒色「×」印の緑ボタンをクリックして拡大、「-」印の緑ボタンをクリックして縮小、緑色の三角印をクリックして隣りの地図に切り替え


METAR-TAF: